Buffalo Hart, Illinois
Current Conditions -  °F | °C
As of 5:52 AM on Friday 21 Nov 2014 (Local Time) from KSPI Reporting Station
Clear Clear  
Wind Chill:   Ceiling: Unl
Heat Index: 16°   Visibility: 10mi
Dew Point:   Wind: 7mph
Humidity: 71%   Direction: 90°E
Pressure: 30.41"   Gusts: NA
Location:  39.8448°N, 89.3474°W
Report Text: KSPI 211152Z 09006KT 10SM CLR M09/M13 A3041 RMK AO2 SLP308 7//// T10891133 11067 21111 53002
Loading
Personal Weather Stations






























Interactive Weather Map New forecast layout! Learn more

10-Day Weather Forecast

Advertisements
Track Severe Weather on mobile